Lawn, Canada
Current Conditions -  °F | °C
As of 7:00 PM on Sunday 23 Nov 2014 (Local Time) from LFVP Reporting Station
Scattered Clouds Scattered Clouds  
Wind Chill: 28°   Ceiling: Unl
Heat Index: 39°   Visibility: 6mi
Dew Point: 32°   Wind: 28mph
Humidity: 75%   Direction: 280°W
Pressure: 29.94"   Gusts: NA
Location:  46.93°N, 55.55°W
Report Text: LFVP 232200Z 28024KT 9999 SCT040 04/M00 Q1014 NOSIG
Loading
Personal Weather Stations






























Interactive Weather Map New forecast layout! Learn more

10-Day Weather Forecast

Advertisements
Track Severe Weather on mobile